Independence of the Seas — C6WW4 — position and weather

sailwx.info

Track history (hours):
 
Tides and Currents Weather Stations Pressure Air Temp Water Temp Dewpoint Dewpoint Depression Visibility Wind Speed Wind Dir Waves Ship Positions

Independence of the Seas

Last reported at 2015-Jul-05 21:23 UTC. Time now 2015-Jul-08 02:15 UTC.
Position N 26°09' W 079°42'.

Length 339 m; draft 8.8 m.

Type: Passenger vessel. MMSI: 309374000.

Date/timePositionNaut miles runAvg speedWind from/ knotsBaromVisibWave heightAir tempDewpointWater temp
2015-Jul-05 21:23N 26°09' W 079°42'1720.4
2015-Jul-05 20:33N 26°06' W 080°00'6 5.4
2015-Jul-05 19:22N 26°05' W 080°07'0 0.0
2015-Jul-05 18:25N 26°05' W 080°07'0 0.0
2015-Jul-05 17:25N 26°05' W 080°07'0 0.0
2015-Jul-05 16:25N 26°05' W 080°07'0 0.0
2015-Jul-05 15:28N 26°05' W 080°07'0 0.0
2015-Jul-05 14:28N 26°05' W 080°07'0 0.0
2015-Jul-05 13:28N 26°05' W 080°07'0 0.0
2015-Jul-05 12:31N 26°05' W 080°07'0 0.0
2015-Jul-05 11:31N 26°05' W 080°07'0 0.1
2015-Jul-05 10:33N 26°05' W 080°07'8 7.5
2015-Jul-05 09:33N 26°02' W 079°60'1818.5
2015-Jul-05 08:33N 25°43' W 079°57'49515.5
2015-Jul-04 00:33N 20°35' W 086°59'4 3.6
2015-Jul-03 23:33N 20°32' W 087°01'4 3.9
2015-Jul-03 22:31N 20°29' W 086°59'0 0.0
2015-Jul-03 21:31N 20°29' W 086°59'0 0.0
2015-Jul-03 20:31N 20°29' W 086°59'0 0.0
2015-Jul-03 19:31N 20°29' W 086°59'0 0.0
2015-Jul-03 18:31N 20°29' W 086°59'0 0.0
2015-Jul-03 17:31N 20°29' W 086°59'0 0.0
2015-Jul-03 16:31N 20°29' W 086°59'0 0.0
2015-Jul-03 15:28N 20°29' W 086°59'0 0.0
2015-Jul-03 14:28N 20°29' W 086°59'0 0.3
2015-Jul-03 13:34N 20°29' W 086°59'  
2015-Jun-28 21:33N 25°51' W 079°59'1515.1
2015-Jun-28 20:33N 26°06' W 080°03'4 3.4
2015-Jun-28 19:32N 26°05' W 080°07'0 0.0
2015-Jun-28 18:32N 26°05' W 080°07'0 0.0
2015-Jun-28 17:23N 26°05' W 080°07'0 0.0
2015-Jun-28 16:23N 26°05' W 080°07'0 0.0
2015-Jun-28 15:26N 26°05' W 080°07'0 0.0
2015-Jun-28 14:26N 26°05' W 080°07'0 0.0
2015-Jun-28 13:29N 26°05' W 080°07'0 0.0
2015-Jun-28 12:29N 26°05' W 080°07'0 0.0
2015-Jun-28 11:29N 26°05' W 080°07'0 0.0
2015-Jun-28 10:33N 26°05' W 080°07'7 7.1
2015-Jun-28 09:33N 26°06' W 079°59'1615.6
2015-Jun-28 08:33N 26°09' W 079°42'1717.3
2015-Jun-28 07:33N 26°11' W 079°23'1817.5
2015-Jun-28 06:33N 26°11' W 079°04'1817.5
2015-Jun-28 05:33N 26°07' W 078°44'  
2015-Jun-26 01:10N 18°11' W 063°33'1219.0
2015-Jun-26 00:32N 18°01' W 063°26'1918.8
2015-Jun-25 23:33N 17°46' W 063°15'  
Track history (hours):
 
Tides and Currents Weather Stations Pressure Air Temp Water Temp Dewpoint Dewpoint Depression Visibility Wind Speed Wind Dir Waves Ship Positions

Independence of the Seas

Last reported at 2015-Jul-05 21:23 UTC. Time now 2015-Jul-08 02:15 UTC.
Position N 26°09' W 079°42'.

Length 339 m; draft 8.8 m.

Type: Passenger vessel. MMSI: 309374000.

Date/timePositionNaut miles runAvg speedWind from/ knotsBaromVisibWave heightAir tempDewpointWater temp
2015-Jul-05 21:23N 26°09' W 079°42'1720.4
2015-Jul-05 20:33N 26°06' W 080°00'6 5.4
2015-Jul-05 19:22N 26°05' W 080°07'0 0.0
2015-Jul-05 18:25N 26°05' W 080°07'0 0.0
2015-Jul-05 17:25N 26°05' W 080°07'0 0.0
2015-Jul-05 16:25N 26°05' W 080°07'0 0.0
2015-Jul-05 15:28N 26°05' W 080°07'0 0.0
2015-Jul-05 14:28N 26°05' W 080°07'0 0.0
2015-Jul-05 13:28N 26°05' W 080°07'0 0.0
2015-Jul-05 12:31N 26°05' W 080°07'0 0.0
2015-Jul-05 11:31N 26°05' W 080°07'0 0.1
2015-Jul-05 10:33N 26°05' W 080°07'8 7.5
2015-Jul-05 09:33N 26°02' W 079°60'1818.5
2015-Jul-05 08:33N 25°43' W 079°57'49515.5
2015-Jul-04 00:33N 20°35' W 086°59'4 3.6
2015-Jul-03 23:33N 20°32' W 087°01'4 3.9
2015-Jul-03 22:31N 20°29' W 086°59'0 0.0
2015-Jul-03 21:31N 20°29' W 086°59'0 0.0
2015-Jul-03 20:31N 20°29' W 086°59'0 0.0
2015-Jul-03 19:31N 20°29' W 086°59'0 0.0
2015-Jul-03 18:31N 20°29' W 086°59'0 0.0
2015-Jul-03 17:31N 20°29' W 086°59'0 0.0
2015-Jul-03 16:31N 20°29' W 086°59'0 0.0
2015-Jul-03 15:28N 20°29' W 086°59'0 0.0
2015-Jul-03 14:28N 20°29' W 086°59'0 0.3
2015-Jul-03 13:34N 20°29' W 086°59'  
2015-Jun-28 21:33N 25°51' W 079°59'1515.1
2015-Jun-28 20:33N 26°06' W 080°03'4 3.4
2015-Jun-28 19:32N 26°05' W 080°07'0 0.0
2015-Jun-28 18:32N 26°05' W 080°07'0 0.0
2015-Jun-28 17:23N 26°05' W 080°07'0 0.0
2015-Jun-28 16:23N 26°05' W 080°07'0 0.0
2015-Jun-28 15:26N 26°05' W 080°07'0 0.0
2015-Jun-28 14:26N 26°05' W 080°07'0 0.0
2015-Jun-28 13:29N 26°05' W 080°07'0 0.0
2015-Jun-28 12:29N 26°05' W 080°07'0 0.0
2015-Jun-28 11:29N 26°05' W 080°07'0 0.0
2015-Jun-28 10:33N 26°05' W 080°07'7 7.1
2015-Jun-28 09:33N 26°06' W 079°59'1615.6
2015-Jun-28 08:33N 26°09' W 079°42'1717.3
2015-Jun-28 07:33N 26°11' W 079°23'1817.5
2015-Jun-28 06:33N 26°11' W 079°04'1817.5
2015-Jun-28 05:33N 26°07' W 078°44'  
2015-Jun-26 01:10N 18°11' W 063°33'1219.0
2015-Jun-26 00:32N 18°01' W 063°26'1918.8
2015-Jun-25 23:33N 17°46' W 063°15'  

Dump ship's entire track history